createdAt,value
2018-04-20T00:01:55.000Z,53.78
2018-04-20T00:04:22.503Z,54.04
2018-04-20T00:06:50.005Z,54.39
2018-04-20T00:09:17.547Z,54.68
2018-04-20T00:11:45.244Z,54.17
2018-04-20T00:14:12.752Z,54.31
2018-04-20T00:16:40.290Z,53.99
2018-04-20T00:19:07.802Z,53.53
2018-04-20T00:21:35.349Z,54.18
2018-04-20T00:24:02.900Z,53.80
2018-04-20T00:26:30.434Z,53.83
2018-04-20T00:28:58.017Z,54.34
2018-04-20T00:31:25.529Z,54.14
2018-04-20T00:33:53.027Z,53.66
2018-04-20T00:36:20.552Z,54.14
2018-04-20T00:38:48.106Z,53.35
2018-04-20T00:41:15.611Z,53.00
2018-04-20T00:43:43.123Z,53.41
2018-04-20T00:46:10.671Z,53.66
2018-04-20T00:48:38.168Z,53.49
2018-04-20T00:51:05.666Z,54.21
2018-04-20T00:53:44.849Z,53.87
2018-04-20T00:56:12.348Z,54.42
2018-04-20T00:58:39.840Z,54.36
2018-04-20T01:01:07.343Z,54.46
2018-04-20T01:03:34.886Z,54.53
2018-04-20T01:06:02.367Z,55.12
2018-04-20T01:08:29.869Z,54.58
2018-04-20T01:10:57.382Z,55.10
2018-04-20T01:13:24.886Z,54.58
2018-04-20T01:15:52.394Z,54.54
2018-04-20T01:18:19.890Z,55.29
2018-04-20T01:20:47.387Z,55.62
2018-04-20T01:23:14.944Z,55.65
2018-04-20T01:25:42.443Z,55.49
2018-04-20T01:28:09.938Z,55.56
2018-04-20T01:30:37.438Z,55.82
2018-04-20T01:33:04.935Z,56.17
2018-04-20T01:35:32.432Z,56.31
2018-04-20T01:37:59.940Z,56.03
2018-04-20T01:40:27.435Z,56.17
2018-04-20T01:42:54.929Z,56.48
2018-04-20T01:45:22.434Z,56.32
2018-04-20T01:47:49.934Z,56.49
2018-04-20T01:50:17.436Z,57.10
2018-04-20T01:52:44.940Z,57.58
2018-04-20T01:55:12.443Z,57.00
2018-04-20T01:57:39.934Z,56.96
2018-04-20T02:00:07.444Z,57.62
2018-04-20T02:02:34.951Z,57.76
2018-04-20T02:05:02.448Z,57.54
2018-04-20T02:07:29.967Z,57.33
2018-04-20T02:09:57.483Z,57.99
2018-04-20T02:12:24.993Z,58.19
2018-04-20T02:14:52.510Z,58.46
2018-04-20T02:17:20.058Z,58.34
2018-04-20T02:19:47.566Z,59.25
2018-04-20T02:22:15.065Z,58.82
2018-04-20T02:24:42.571Z,58.94
2018-04-20T02:27:10.123Z,59.06
2018-04-20T02:29:37.615Z,59.90
2018-04-20T02:32:05.156Z,59.51
2018-04-20T02:34:32.705Z,59.64
2018-04-20T02:37:00.208Z,59.43
2018-04-20T02:39:27.747Z,59.73
2018-04-20T02:41:55.333Z,59.57
2018-04-20T02:44:22.845Z,59.52
2018-04-20T02:46:50.367Z,58.76
2018-04-20T02:49:17.867Z,59.02
2018-04-20T02:51:45.633Z,59.82
2018-04-20T02:54:13.203Z,59.45
2018-04-20T02:56:40.795Z,58.78
2018-04-20T02:59:08.304Z,58.26
2018-04-20T03:01:35.855Z,58.22
2018-04-20T03:04:03.415Z,58.06
2018-04-20T03:06:30.921Z,58.20
2018-04-20T03:08:58.459Z,57.88
2018-04-20T03:11:25.969Z,58.16
2018-04-20T03:13:53.468Z,57.90
2018-04-20T03:16:20.971Z,57.96
2018-04-20T03:18:48.472Z,57.83
2018-04-20T03:21:15.990Z,58.76
2018-04-20T03:23:43.496Z,58.53
2018-04-20T03:26:11.002Z,58.93
2018-04-20T03:28:38.495Z,58.36
2018-04-20T03:31:05.995Z,58.49
2018-04-20T03:33:33.508Z,59.01
2018-04-20T03:36:01.007Z,59.62
2018-04-20T03:38:28.509Z,59.19
2018-04-20T03:40:56.066Z,59.46
2018-04-20T03:43:23.562Z,58.95
2018-04-20T03:45:51.068Z,59.26
2018-04-20T03:48:18.616Z,58.67
2018-04-20T03:50:46.120Z,58.60
2018-04-20T03:53:13.620Z,58.72
2018-04-20T03:55:41.116Z,58.90
2018-04-20T03:58:08.608Z,58.91
2018-04-20T04:00:36.151Z,58.71
2018-04-20T04:03:03.658Z,58.23
2018-04-20T04:05:31.183Z,58.28
2018-04-20T04:07:58.750Z,58.38
2018-04-20T04:10:26.256Z,58.65
2018-04-20T04:12:53.757Z,58.00
2018-04-20T04:15:21.267Z,58.45
2018-04-20T04:18:00.631Z,58.63
2018-04-20T04:20:36.959Z,57.49
2018-04-20T04:23:16.722Z,57.25
2018-04-20T04:25:56.139Z,58.19
2018-04-20T04:28:27.474Z,58.26
2018-04-20T04:30:55.013Z,58.15
2018-04-20T04:33:22.507Z,57.69
2018-04-20T04:35:50.083Z,58.28
2018-04-20T04:38:17.591Z,58.31
2018-04-20T04:40:45.204Z,58.29
2018-04-20T04:43:12.708Z,58.41
2018-04-20T04:45:40.231Z,58.29
2018-04-20T04:48:07.761Z,58.73
2018-04-20T04:50:35.342Z,59.06
2018-04-20T04:53:02.848Z,58.88
2018-04-20T04:55:30.351Z,59.39
2018-04-20T04:57:57.843Z,58.55
2018-04-20T05:00:25.392Z,58.23
2018-04-20T05:02:52.935Z,58.17
2018-04-20T05:05:20.500Z,58.16
2018-04-20T05:07:48.053Z,57.92
2018-04-20T05:10:15.612Z,57.65
2018-04-20T05:12:43.115Z,57.27
2018-04-20T05:15:10.615Z,57.20
2018-04-20T05:17:38.111Z,56.94
2018-04-20T05:20:05.655Z,57.78
2018-04-20T05:22:33.155Z,58.45
2018-04-20T05:25:00.688Z,58.28
2018-04-20T05:27:28.244Z,58.13
2018-04-20T05:29:55.787Z,56.94
2018-04-20T05:32:23.345Z,57.62
2018-04-20T05:34:50.852Z,57.02
2018-04-20T05:37:18.412Z,57.89
2018-04-20T05:39:45.967Z,58.22
2018-04-20T05:42:13.481Z,58.40
2018-04-20T05:44:40.990Z,57.95
2018-04-20T05:47:08.517Z,58.11
2018-04-20T05:49:36.039Z,58.25
2018-04-20T05:52:03.600Z,58.59
2018-04-20T05:54:31.117Z,59.22
2018-04-20T05:56:58.652Z,59.27
2018-04-20T05:59:26.162Z,58.95
2018-04-20T06:01:53.751Z,58.42
2018-04-20T06:04:21.270Z,57.66
2018-04-20T06:06:48.775Z,57.89
2018-04-20T06:09:16.329Z,57.41
2018-04-20T06:11:43.878Z,57.88
2018-04-20T06:14:11.394Z,57.45
2018-04-20T06:16:38.891Z,57.20
2018-04-20T06:19:06.399Z,57.79
2018-04-20T06:21:34.229Z,56.67
2018-04-20T06:24:01.736Z,55.93
2018-04-20T06:26:29.250Z,55.93
2018-04-20T06:28:56.755Z,55.33
2018-04-20T06:31:24.275Z,55.35
2018-04-20T06:33:51.824Z,55.55
2018-04-20T06:36:19.325Z,53.86
2018-04-20T06:38:46.846Z,54.92
2018-04-20T06:41:14.354Z,54.52
2018-04-20T06:43:41.913Z,51.27
2018-04-20T06:46:09.501Z,51.52
2018-04-20T06:48:37.021Z,51.26
2018-04-20T06:51:04.602Z,51.63
2018-04-20T06:53:32.116Z,51.43
2018-04-20T06:55:59.639Z,48.05
2018-04-20T06:58:27.165Z,46.83
2018-04-20T07:00:54.669Z,46.54
2018-04-20T07:03:22.188Z,43.91
2018-04-20T07:05:49.685Z,43.34
2018-04-20T07:08:17.222Z,41.10
2018-04-20T07:10:44.715Z,39.56
2018-04-20T07:13:12.238Z,37.30
2018-04-20T07:15:39.742Z,37.06
2018-04-20T07:18:07.284Z,34.57
2018-04-20T07:20:34.803Z,35.34
2018-04-20T07:23:02.358Z,33.35
2018-04-20T07:25:29.851Z,34.20
2018-04-20T07:27:57.371Z,34.06
2018-04-20T07:30:24.874Z,34.21
2018-04-20T07:32:52.391Z,32.23
2018-04-20T07:35:19.918Z,35.05
2018-04-20T07:37:47.432Z,37.17
2018-04-20T07:40:14.939Z,39.19
2018-04-20T07:42:42.472Z,39.17
2018-04-20T07:45:09.966Z,39.31
2018-04-20T07:47:37.476Z,40.20
2018-04-20T07:50:05.008Z,42.52
2018-04-20T07:52:32.511Z,44.03
2018-04-20T07:55:00.030Z,43.77
2018-04-20T07:57:27.533Z,42.88
2018-04-20T07:59:55.085Z,41.77
2018-04-20T08:02:22.587Z,40.39
2018-04-20T08:04:50.101Z,41.94
2018-04-20T08:07:17.615Z,43.22
2018-04-20T08:09:45.117Z,40.50
2018-04-20T08:12:12.660Z,38.35
2018-04-20T08:14:40.229Z,35.81
2018-04-20T08:17:07.799Z,36.38
2018-04-20T08:19:35.307Z,36.60
2018-04-20T08:22:02.823Z,34.47
2018-04-20T08:24:30.331Z,33.56
2018-04-20T08:26:57.868Z,32.49
2018-04-20T08:29:25.450Z,34.38
2018-04-20T08:31:52.976Z,34.47
2018-04-20T08:34:20.532Z,32.05
2018-04-20T08:36:48.039Z,34.11
2018-04-20T08:39:15.589Z,33.17
2018-04-20T08:41:43.115Z,30.34
2018-04-20T08:44:10.616Z,28.96
2018-04-20T08:46:38.175Z,29.33
2018-04-20T08:49:05.670Z,29.18
2018-04-20T08:51:33.228Z,29.56
2018-04-20T08:54:00.816Z,29.65
2018-04-20T08:56:28.304Z,30.31
2018-04-20T08:58:55.812Z,31.73
2018-04-20T09:01:23.348Z,30.37
2018-04-20T09:03:50.864Z,30.83
2018-04-20T09:06:18.420Z,30.37
2018-04-20T09:08:45.925Z,30.14
2018-04-20T09:11:13.443Z,27.99
2018-04-20T09:13:40.988Z,26.59
2018-04-20T09:16:08.517Z,26.70
2018-04-20T09:18:36.092Z,27.09
2018-04-20T09:21:03.599Z,28.25
2018-04-20T09:23:31.114Z,29.05
2018-04-20T09:25:58.610Z,29.92
2018-04-20T09:28:26.108Z,28.67
2018-04-20T09:30:53.646Z,27.57
2018-04-20T09:33:21.146Z,28.18
2018-04-20T09:35:48.706Z,29.75
2018-04-20T09:38:16.212Z,31.35
2018-04-20T09:40:43.779Z,30.88
2018-04-20T09:43:11.284Z,30.47
2018-04-20T09:45:38.820Z,31.95
2018-04-20T09:48:06.362Z,32.97
2018-04-20T09:50:33.863Z,33.24
2018-04-20T09:53:01.431Z,33.85
2018-04-20T09:55:28.956Z,33.16
2018-04-20T09:57:56.491Z,33.23
2018-04-20T10:00:24.055Z,33.58
2018-04-20T10:02:51.952Z,33.77
2018-04-20T10:05:24.388Z,34.86
2018-04-20T10:07:51.953Z,34.98
2018-04-20T10:10:19.451Z,34.20
2018-04-20T10:12:46.962Z,33.91
2018-04-20T10:15:14.512Z,30.91
2018-04-20T10:17:42.033Z,28.62
2018-04-20T10:20:09.556Z,28.13
2018-04-20T10:22:37.077Z,28.66
2018-04-20T10:25:04.573Z,31.47
2018-04-20T10:27:32.114Z,34.44
2018-04-20T10:29:59.663Z,34.59
2018-04-20T10:32:27.171Z,35.45
2018-04-20T10:34:54.725Z,36.34
2018-04-20T10:37:22.227Z,36.47
2018-04-20T10:39:49.731Z,36.09
2018-04-20T10:42:17.275Z,36.30
2018-04-20T10:44:44.779Z,36.65
2018-04-20T10:47:12.403Z,37.00
2018-04-20T10:49:39.918Z,37.31
2018-04-20T10:52:07.431Z,36.87
2018-04-20T10:54:34.939Z,37.00
2018-04-20T10:57:02.438Z,37.38
2018-04-20T10:59:29.963Z,37.05
2018-04-20T11:01:57.471Z,37.33
2018-04-20T11:04:25.031Z,36.90
2018-04-20T11:06:52.531Z,37.88
2018-04-20T11:09:20.051Z,37.37
2018-04-20T11:11:47.610Z,37.35
2018-04-20T11:14:15.106Z,37.60
2018-04-20T11:16:42.629Z,38.14
2018-04-20T11:19:10.124Z,37.83
2018-04-20T11:21:38.488Z,37.75
2018-04-20T11:24:06.048Z,37.00
2018-04-20T11:26:33.559Z,37.69
2018-04-20T11:29:01.104Z,37.14
2018-04-20T11:31:28.598Z,36.64
2018-04-20T11:33:56.134Z,35.74
2018-04-20T11:36:23.643Z,36.96
2018-04-20T11:38:51.174Z,36.26
2018-04-20T11:41:18.667Z,36.03
2018-04-20T11:43:46.207Z,36.88
2018-04-20T11:46:13.706Z,39.88
2018-04-20T11:48:41.255Z,44.86
2018-04-20T11:51:08.806Z,46.44
2018-04-20T11:53:36.324Z,46.08
2018-04-20T11:56:03.841Z,45.85
2018-04-20T11:58:31.352Z,42.89
2018-04-20T12:00:58.895Z,38.28
2018-04-20T12:03:26.412Z,40.52
2018-04-20T12:05:53.927Z,41.58
2018-04-20T12:08:21.476Z,44.04
2018-04-20T12:10:49.001Z,44.41
2018-04-20T12:13:16.543Z,44.66
2018-04-20T12:15:44.060Z,44.28
2018-04-20T12:18:11.604Z,45.30
2018-04-20T12:20:39.110Z,47.20
2018-04-20T12:23:06.647Z,48.05
2018-04-20T12:25:34.150Z,48.35
2018-04-20T12:28:01.658Z,47.59
2018-04-20T12:30:29.302Z,46.73
2018-04-20T12:32:56.807Z,45.96
2018-04-20T12:35:24.299Z,43.24
2018-04-20T12:37:51.807Z,43.29
2018-04-20T12:40:19.360Z,41.96
2018-04-20T12:42:46.863Z,42.19
2018-04-20T12:45:14.358Z,41.18
2018-04-20T12:47:41.912Z,41.96
2018-04-20T12:50:09.488Z,42.58
2018-04-20T12:52:36.978Z,40.73
2018-04-20T12:55:04.471Z,38.31
2018-04-20T12:57:32.019Z,39.16
2018-04-20T12:59:59.524Z,40.52
2018-04-20T13:02:27.081Z,39.08
2018-04-20T13:04:54.625Z,39.99
2018-04-20T13:07:22.124Z,41.25
2018-04-20T13:09:49.640Z,43.75
2018-04-20T13:12:17.513Z,43.49
2018-04-20T13:14:45.025Z,44.80
2018-04-20T13:17:12.538Z,44.93
2018-04-20T13:19:40.056Z,45.75
2018-04-20T13:22:07.555Z,45.53
2018-04-20T13:24:35.051Z,46.22
2018-04-20T13:27:02.578Z,46.29
2018-04-20T13:29:30.092Z,44.49
2018-04-20T13:31:57.610Z,43.35
2018-04-20T13:34:25.237Z,43.54
2018-04-20T13:36:52.684Z,43.47
2018-04-20T13:39:20.176Z,43.08
2018-04-20T13:41:48.037Z,42.16
2018-04-20T13:44:15.536Z,42.29
2018-04-20T13:46:44.032Z,39.82
2018-04-20T13:49:11.543Z,40.50
2018-04-20T13:51:39.099Z,38.73
2018-04-20T13:54:06.603Z,38.85
2018-04-20T13:56:34.109Z,40.02
2018-04-20T13:59:01.607Z,40.34
2018-04-20T14:01:29.141Z,40.53
2018-04-20T14:03:56.689Z,40.16
2018-04-20T14:06:24.188Z,41.01
2018-04-20T14:08:51.740Z,40.52
2018-04-20T14:11:19.263Z,40.43
2018-04-20T14:13:46.767Z,41.06
2018-04-20T14:16:14.275Z,40.67
2018-04-20T14:18:41.769Z,38.78
2018-04-20T14:21:09.308Z,38.86
2018-04-20T14:23:36.825Z,33.73
2018-04-20T14:26:04.324Z,34.73
2018-04-20T14:28:31.831Z,34.60
2018-04-20T14:30:59.364Z,34.01
2018-04-20T14:33:26.871Z,33.91
2018-04-20T14:35:54.379Z,34.14
2018-04-20T14:38:21.911Z,33.36
2018-04-20T14:40:49.468Z,34.36
2018-04-20T14:43:17.023Z,34.94
2018-04-20T14:45:44.528Z,34.97
2018-04-20T14:48:12.045Z,35.12
2018-04-20T14:50:39.544Z,34.49
2018-04-20T14:53:07.054Z,34.16
2018-04-20T14:55:34.560Z,33.38
2018-04-20T14:58:02.057Z,33.63
2018-04-20T15:00:29.603Z,33.31
2018-04-20T15:02:57.115Z,33.20
2018-04-20T15:05:24.660Z,34.11
2018-04-20T15:07:52.199Z,34.33
2018-04-20T15:10:19.694Z,34.21
2018-04-20T15:12:47.244Z,34.02
2018-04-20T15:15:14.743Z,34.25
2018-04-20T15:17:42.239Z,34.25
2018-04-20T15:20:09.812Z,34.00
2018-04-20T15:22:37.319Z,34.06
2018-04-20T15:25:04.869Z,34.54
2018-04-20T15:27:32.416Z,35.07
2018-04-20T15:30:00.464Z,34.96
2018-04-20T15:32:27.960Z,35.55
2018-04-20T15:34:55.498Z,35.96
2018-04-20T15:37:22.999Z,35.87
2018-04-20T15:39:50.493Z,35.60
2018-04-20T15:42:17.995Z,34.95
2018-04-20T15:44:45.545Z,34.05
2018-04-20T15:47:13.044Z,34.05
2018-04-20T15:49:40.574Z,33.71
2018-04-20T15:52:08.129Z,33.79
2018-04-20T15:54:35.652Z,34.30
2018-04-20T15:57:03.165Z,34.78
2018-04-20T15:59:30.709Z,35.66
2018-04-20T16:01:58.214Z,37.34
2018-04-20T16:04:25.728Z,36.69
2018-04-20T16:06:53.348Z,37.46
2018-04-20T16:09:20.846Z,36.48
2018-04-20T16:11:48.409Z,36.12
2018-04-20T16:14:15.911Z,36.99
2018-04-20T16:16:43.454Z,36.28
2018-04-20T16:19:10.952Z,36.90
2018-04-20T16:21:38.500Z,36.75
2018-04-20T16:24:06.007Z,36.65
2018-04-20T16:26:33.547Z,36.75
2018-04-20T16:29:01.060Z,36.58
2018-04-20T16:31:28.639Z,37.14
2018-04-20T16:33:56.141Z,37.02
2018-04-20T16:36:23.643Z,36.96
2018-04-20T16:38:51.209Z,36.97
2018-04-20T16:41:18.704Z,36.96
2018-04-20T16:43:46.415Z,37.50
2018-04-20T16:46:13.915Z,37.88
2018-04-20T16:48:41.477Z,37.95
2018-04-20T16:51:08.979Z,37.28
2018-04-20T16:53:36.483Z,37.83
2018-04-20T16:56:03.992Z,38.03
2018-04-20T16:58:31.590Z,38.08
2018-04-20T17:00:59.134Z,38.20
2018-04-20T17:03:26.640Z,38.92
2018-04-20T17:05:54.141Z,38.70
2018-04-20T17:08:21.647Z,38.95
2018-04-20T17:10:49.152Z,39.12
2018-04-20T17:13:16.692Z,39.67
2018-04-20T17:15:44.200Z,40.03
2018-04-20T17:18:11.802Z,40.00
2018-04-20T17:20:39.323Z,39.99
2018-04-20T17:23:06.820Z,40.24
2018-04-20T17:25:34.339Z,40.70
2018-04-20T17:28:01.849Z,41.19
2018-04-20T17:30:29.454Z,40.45
2018-04-20T17:32:56.962Z,40.87
2018-04-20T17:35:24.465Z,40.85
2018-04-20T17:37:51.963Z,41.01
2018-04-20T17:40:19.475Z,40.91
2018-04-20T17:42:46.977Z,41.68
2018-04-20T17:45:14.481Z,41.79
2018-04-20T17:47:42.004Z,41.60
2018-04-20T17:50:09.516Z,41.75
2018-04-20T17:52:37.077Z,41.79
2018-04-20T17:55:04.579Z,41.96
2018-04-20T17:57:32.093Z,41.76
2018-04-20T17:59:59.598Z,41.69
2018-04-20T18:02:27.104Z,41.61
2018-04-20T18:04:54.603Z,41.65
2018-04-20T18:07:22.153Z,42.59
2018-04-20T18:09:49.660Z,42.49
2018-04-20T18:12:17.164Z,42.78
2018-04-20T18:14:44.679Z,43.11
2018-04-20T18:17:12.183Z,43.53
2018-04-20T18:19:39.721Z,42.97
2018-04-20T18:22:07.217Z,43.51
2018-04-20T18:24:34.730Z,43.41
2018-04-20T18:27:02.248Z,43.56
2018-04-20T18:29:29.757Z,43.40
2018-04-20T18:31:57.264Z,44.18
2018-04-20T18:34:24.759Z,44.05
2018-04-20T18:36:52.251Z,43.92
2018-04-20T18:39:19.747Z,43.95
2018-04-20T18:41:47.252Z,43.92
2018-04-20T18:44:14.787Z,44.03
2018-04-20T18:46:42.335Z,45.14
2018-04-20T18:49:09.839Z,44.50
2018-04-20T18:51:37.367Z,44.45
2018-04-20T18:54:04.883Z,44.71
2018-04-20T18:56:32.383Z,44.79
2018-04-20T18:58:59.891Z,45.21
2018-04-20T19:01:27.408Z,44.67
2018-04-20T19:03:54.956Z,44.82
2018-04-20T19:06:22.519Z,45.01
2018-04-20T19:08:50.044Z,45.47
2018-04-20T19:11:17.608Z,46.22
2018-04-20T19:13:45.131Z,45.96
2018-04-20T19:16:12.681Z,46.43
2018-04-20T19:18:40.194Z,47.36
2018-04-20T19:21:08.582Z,48.02
2018-04-20T19:23:36.102Z,48.12
2018-04-20T19:26:03.614Z,48.43
2018-04-20T19:28:31.156Z,47.38
2018-04-20T19:30:58.666Z,47.56
2018-04-20T19:33:26.213Z,47.64
2018-04-20T19:35:53.720Z,47.81
2018-04-20T19:38:21.248Z,47.72
2018-04-20T19:40:48.761Z,48.48
2018-04-20T19:43:16.302Z,47.49
2018-04-20T19:45:43.818Z,47.46
2018-04-20T19:48:11.331Z,47.57
2018-04-20T19:50:38.849Z,47.37
2018-04-20T19:53:06.359Z,47.62
2018-04-20T19:55:33.868Z,47.37
2018-04-20T19:58:01.377Z,47.04
2018-04-20T20:00:28.883Z,46.99
2018-04-20T20:02:56.423Z,48.18
2018-04-20T20:05:23.971Z,48.60
2018-04-20T20:07:51.480Z,49.40
2018-04-20T20:10:18.992Z,50.27
2018-04-20T20:12:46.496Z,49.45
2018-04-20T20:15:14.012Z,49.43
2018-04-20T20:17:41.830Z,49.78
2018-04-20T20:20:09.339Z,49.96
2018-04-20T20:22:36.882Z,49.49
2018-04-20T20:25:04.429Z,48.91
2018-04-20T20:27:31.912Z,49.91
2018-04-20T20:29:59.423Z,50.83
2018-04-20T20:32:26.929Z,50.81
2018-04-20T20:34:54.435Z,50.96
2018-04-20T20:37:21.942Z,51.93
2018-04-20T20:39:49.449Z,51.39
2018-04-20T20:42:16.962Z,51.78
2018-04-20T20:44:44.463Z,52.23
2018-04-20T20:47:11.994Z,52.01
2018-04-20T20:49:39.509Z,52.47
2018-04-20T20:52:07.027Z,51.98
2018-04-20T20:54:34.533Z,51.61
2018-04-20T20:57:02.967Z,52.45
2018-04-20T20:59:31.287Z,51.54
2018-04-20T21:01:58.786Z,51.90
2018-04-20T21:04:26.293Z,53.02
2018-04-20T21:06:53.819Z,53.09
2018-04-20T21:09:21.374Z,53.54
2018-04-20T21:11:48.943Z,53.97
2018-04-20T21:14:16.481Z,53.55
2018-04-20T21:16:44.024Z,53.80
2018-04-20T21:19:11.611Z,53.58
2018-04-20T21:21:39.144Z,53.85
2018-04-20T21:24:06.644Z,53.71
2018-04-20T21:26:34.470Z,54.11
2018-04-20T21:29:01.972Z,54.02
2018-04-20T21:31:29.493Z,53.90
2018-04-20T21:33:59.378Z,54.01
2018-04-20T21:36:24.619Z,54.87
2018-04-20T21:38:52.141Z,54.77
2018-04-20T21:41:19.648Z,54.75
2018-04-20T21:43:47.160Z,55.14
2018-04-20T21:46:14.662Z,55.73
2018-04-20T21:48:42.168Z,55.27
2018-04-20T21:51:09.672Z,54.87
2018-04-20T21:53:37.219Z,55.82
2018-04-20T21:56:04.753Z,56.09
2018-04-20T21:58:32.263Z,55.98
2018-04-20T22:00:59.831Z,55.98
2018-04-20T22:03:27.383Z,56.03
2018-04-20T22:05:55.939Z,56.39
2018-04-20T22:08:23.492Z,56.26
2018-04-20T22:10:51.074Z,56.78
2018-04-20T22:13:18.613Z,56.99
2018-04-20T22:15:46.168Z,57.36
2018-04-20T22:18:13.703Z,58.50
2018-04-20T22:20:41.255Z,57.51
2018-04-20T22:23:08.835Z,57.91
2018-04-20T22:25:36.371Z,57.84
2018-04-20T22:28:04.041Z,57.82
2018-04-20T22:30:31.627Z,57.80
2018-04-20T22:32:59.151Z,58.16
2018-04-20T22:35:26.690Z,58.22
2018-04-20T22:37:54.234Z,57.96
2018-04-20T22:40:21.767Z,57.86
2018-04-20T22:42:49.280Z,57.92
2018-04-20T22:45:16.828Z,58.15
2018-04-20T22:47:44.377Z,58.80
2018-04-20T22:50:11.924Z,59.77
2018-04-20T22:52:39.432Z,59.69
2018-04-20T22:55:06.936Z,59.83
2018-04-20T22:57:34.484Z,60.17
2018-04-20T23:00:02.001Z,60.89
2018-04-20T23:02:29.511Z,60.64
2018-04-20T23:04:57.024Z,60.54
2018-04-20T23:07:24.580Z,61.14
2018-04-20T23:09:52.191Z,60.57
2018-04-20T23:12:19.772Z,60.87
2018-04-20T23:14:47.304Z,60.90
2018-04-20T23:17:14.959Z,60.57
2018-04-20T23:19:42.504Z,60.96
2018-04-20T23:22:10.085Z,60.86
2018-04-20T23:27:10.529Z,62.18
2018-04-20T23:29:38.133Z,63.00
2018-04-20T23:32:05.663Z,61.68
2018-04-20T23:34:33.215Z,61.79
2018-04-20T23:37:00.759Z,61.98
2018-04-20T23:39:28.337Z,62.25
2018-04-20T23:41:55.864Z,62.19
2018-04-20T23:44:23.416Z,62.14
2018-04-20T23:46:50.993Z,61.79
2018-04-20T23:49:18.529Z,61.89
2018-04-20T23:51:46.067Z,62.10
2018-04-20T23:54:13.618Z,63.47
2018-04-20T23:56:42.073Z,61.99
2018-04-20T23:59:09.639Z,61.15
